sensor_id;sensor_type;location;lat;lon;timestamp;P1;durP1;ratioP1;P2;durP2;ratioP2
51296;SDS011;37380;45.186;9.792;2024-02-28T00:02:04;2.20;;;2.10;;
51296;SDS011;37380;45.186;9.792;2024-02-28T00:04:31;1.80;;;1.70;;
51296;SDS011;37380;45.186;9.792;2024-02-28T00:06:58;3.22;;;2.20;;
51296;SDS011;37380;45.186;9.792;2024-02-28T00:09:25;3.30;;;2.85;;
51296;SDS011;37380;45.186;9.792;2024-02-28T00:11:52;3.22;;;2.40;;
51296;SDS011;37380;45.186;9.792;2024-02-28T00:14:19;3.05;;;2.75;;
51296;SDS011;37380;45.186;9.792;2024-02-28T00:16:47;2.42;;;2.22;;
51296;SDS011;37380;45.186;9.792;2024-02-28T00:19:14;1.98;;;1.77;;
51296;SDS011;37380;45.186;9.792;2024-02-28T00:21:41;3.58;;;2.20;;
51296;SDS011;37380;45.186;9.792;2024-02-28T00:24:09;1.83;;;1.73;;
51296;SDS011;37380;45.186;9.792;2024-02-28T00:26:37;1.95;;;1.80;;
51296;SDS011;37380;45.186;9.792;2024-02-28T00:29:07;1.88;;;1.77;;
51296;SDS011;37380;45.186;9.792;2024-02-28T00:31:34;2.03;;;1.75;;
51296;SDS011;37380;45.186;9.792;2024-02-28T00:34:00;1.45;;;1.35;;
51296;SDS011;37380;45.186;9.792;2024-02-28T00:36:29;1.70;;;1.60;;
51296;SDS011;37380;45.186;9.792;2024-02-28T00:39:13;1.67;;;1.58;;
51296;SDS011;37380;45.186;9.792;2024-02-28T00:41:40;1.13;;;1.13;;
51296;SDS011;37380;45.186;9.792;2024-02-28T00:44:07;1.00;;;1.00;;
51296;SDS011;37380;45.186;9.792;2024-02-28T00:46:34;1.80;;;1.52;;
51296;SDS011;37380;45.186;9.792;2024-02-28T00:49:01;1.13;;;1.08;;
51296;SDS011;37380;45.186;9.792;2024-02-28T00:51:28;2.65;;;1.30;;
51296;SDS011;37380;45.186;9.792;2024-02-28T00:53:54;1.40;;;1.30;;
51296;SDS011;37380;45.186;9.792;2024-02-28T00:56:21;1.33;;;1.20;;
51296;SDS011;37380;45.186;9.792;2024-02-28T00:58:51;1.35;;;1.10;;
51296;SDS011;37380;45.186;9.792;2024-02-28T01:01:17;2.35;;;1.30;;
51296;SDS011;37380;45.186;9.792;2024-02-28T01:03:45;1.58;;;1.48;;
51296;SDS011;37380;45.186;9.792;2024-02-28T01:06:12;1.52;;;1.40;;
51296;SDS011;37380;45.186;9.792;2024-02-28T01:08:38;1.42;;;1.15;;
51296;SDS011;37380;45.186;9.792;2024-02-28T01:11:06;1.33;;;1.23;;
51296;SDS011;37380;45.186;9.792;2024-02-28T01:13:33;1.38;;;1.27;;
51296;SDS011;37380;45.186;9.792;2024-02-28T01:16:00;1.83;;;1.73;;
51296;SDS011;37380;45.186;9.792;2024-02-28T01:18:27;1.92;;;1.48;;
51296;SDS011;37380;45.186;9.792;2024-02-28T01:20:57;1.20;;;1.05;;
51296;SDS011;37380;45.186;9.792;2024-02-28T01:23:25;4.95;;;1.45;;
51296;SDS011;37380;45.186;9.792;2024-02-28T01:25:52;1.50;;;1.40;;
51296;SDS011;37380;45.186;9.792;2024-02-28T01:28:19;1.60;;;1.50;;
51296;SDS011;37380;45.186;9.792;2024-02-28T01:30:46;2.25;;;1.70;;
51296;SDS011;37380;45.186;9.792;2024-02-28T01:33:13;3.60;;;1.58;;
51296;SDS011;37380;45.186;9.792;2024-02-28T01:35:40;1.88;;;1.65;;
51296;SDS011;37380;45.186;9.792;2024-02-28T01:38:07;1.50;;;1.40;;
51296;SDS011;37380;45.186;9.792;2024-02-28T01:40:34;1.33;;;1.23;;
51296;SDS011;37380;45.186;9.792;2024-02-28T01:43:08;1.42;;;1.33;;
51296;SDS011;37380;45.186;9.792;2024-02-28T01:45:35;2.65;;;1.88;;
51296;SDS011;37380;45.186;9.792;2024-02-28T01:48:02;3.33;;;1.58;;
51296;SDS011;37380;45.186;9.792;2024-02-28T01:50:33;4.90;;;1.40;;
51296;SDS011;37380;45.186;9.792;2024-02-28T01:53:00;1.38;;;1.27;;
51296;SDS011;37380;45.186;9.792;2024-02-28T01:55:28;4.20;;;1.63;;
51296;SDS011;37380;45.186;9.792;2024-02-28T01:57:55;2.20;;;1.42;;
51296;SDS011;37380;45.186;9.792;2024-02-28T02:00:22;1.70;;;1.60;;
51296;SDS011;37380;45.186;9.792;2024-02-28T02:02:51;1.55;;;1.45;;
51296;SDS011;37380;45.186;9.792;2024-02-28T02:05:18;1.42;;;1.33;;
51296;SDS011;37380;45.186;9.792;2024-02-28T02:07:48;2.00;;;1.83;;
51296;SDS011;37380;45.186;9.792;2024-02-28T02:10:15;1.42;;;1.20;;
51296;SDS011;37380;45.186;9.792;2024-02-28T02:12:42;2.20;;;1.60;;
51296;SDS011;37380;45.186;9.792;2024-02-28T02:15:09;1.65;;;1.38;;
51296;SDS011;37380;45.186;9.792;2024-02-28T02:17:37;1.75;;;1.50;;
51296;SDS011;37380;45.186;9.792;2024-02-28T02:20:04;1.75;;;1.63;;
51296;SDS011;37380;45.186;9.792;2024-02-28T02:22:38;1.50;;;1.40;;
51296;SDS011;37380;45.186;9.792;2024-02-28T02:25:05;1.48;;;1.38;;
51296;SDS011;37380;45.186;9.792;2024-02-28T02:27:33;3.70;;;2.00;;
51296;SDS011;37380;45.186;9.792;2024-02-28T02:30:00;2.00;;;1.65;;
51296;SDS011;37380;45.186;9.792;2024-02-28T02:32:27;1.77;;;1.45;;
51296;SDS011;37380;45.186;9.792;2024-02-28T02:34:55;1.60;;;1.50;;
51296;SDS011;37380;45.186;9.792;2024-02-28T02:37:22;5.57;;;1.95;;
51296;SDS011;37380;45.186;9.792;2024-02-28T02:39:49;2.53;;;2.30;;
51296;SDS011;37380;45.186;9.792;2024-02-28T02:42:16;2.03;;;1.45;;
51296;SDS011;37380;45.186;9.792;2024-02-28T02:44:44;1.83;;;1.73;;
51296;SDS011;37380;45.186;9.792;2024-02-28T02:47:11;2.65;;;1.77;;
51296;SDS011;37380;45.186;9.792;2024-02-28T02:49:38;8.70;;;1.80;;
51296;SDS011;37380;45.186;9.792;2024-02-28T02:52:05;1.95;;;1.40;;
51296;SDS011;37380;45.186;9.792;2024-02-28T02:54:32;1.58;;;1.48;;
51296;SDS011;37380;45.186;9.792;2024-02-28T02:56:59;1.65;;;1.55;;
51296;SDS011;37380;45.186;9.792;2024-02-28T02:59:26;3.55;;;1.40;;
51296;SDS011;37380;45.186;9.792;2024-02-28T03:01:53;1.40;;;1.30;;
51296;SDS011;37380;45.186;9.792;2024-02-28T03:04:20;0.60;;;0.60;;
51296;SDS011;37380;45.186;9.792;2024-02-28T03:06:48;1.05;;;1.05;;
51296;SDS011;37380;45.186;9.792;2024-02-28T03:09:15;1.20;;;1.10;;
51296;SDS011;37380;45.186;9.792;2024-02-28T03:11:42;1.10;;;1.00;;
51296;SDS011;37380;45.186;9.792;2024-02-28T03:14:09;2.63;;;1.25;;
51296;SDS011;37380;45.186;9.792;2024-02-28T03:16:40;0.75;;;0.75;;
51296;SDS011;37380;45.186;9.792;2024-02-28T03:19:09;0.98;;;0.98;;
51296;SDS011;37380;45.186;9.792;2024-02-28T03:21:37;0.95;;;0.88;;
51296;SDS011;37380;45.186;9.792;2024-02-28T03:24:04;1.30;;;1.20;;
51296;SDS011;37380;45.186;9.792;2024-02-28T03:26:31;1.33;;;1.23;;
51296;SDS011;37380;45.186;9.792;2024-02-28T03:28:58;0.90;;;0.90;;
51296;SDS011;37380;45.186;9.792;2024-02-28T03:31:27;4.45;;;0.93;;
51296;SDS011;37380;45.186;9.792;2024-02-28T03:33:54;1.10;;;1.00;;
51296;SDS011;37380;45.186;9.792;2024-02-28T03:36:21;0.98;;;0.75;;
51296;SDS011;37380;45.186;9.792;2024-02-28T03:38:48;1.88;;;1.40;;
51296;SDS011;37380;45.186;9.792;2024-02-28T03:41:15;0.50;;;0.50;;
51296;SDS011;37380;45.186;9.792;2024-02-28T03:43:42;1.38;;;1.20;;
51296;SDS011;37380;45.186;9.792;2024-02-28T03:46:09;0.90;;;0.77;;
51296;SDS011;37380;45.186;9.792;2024-02-28T03:48:36;0.90;;;0.90;;
51296;SDS011;37380;45.186;9.792;2024-02-28T03:51:03;0.80;;;0.80;;
51296;SDS011;37380;45.186;9.792;2024-02-28T03:53:31;1.02;;;0.93;;
51296;SDS011;37380;45.186;9.792;2024-02-28T03:55:58;0.90;;;0.90;;
51296;SDS011;37380;45.186;9.792;2024-02-28T03:58:25;1.40;;;1.05;;
51296;SDS011;37380;45.186;9.792;2024-02-28T04:00:52;1.55;;;1.30;;
51296;SDS011;37380;45.186;9.792;2024-02-28T04:03:19;3.50;;;1.17;;
51296;SDS011;37380;45.186;9.792;2024-02-28T04:05:47;0.95;;;0.90;;
51296;SDS011;37380;45.186;9.792;2024-02-28T04:08:14;0.63;;;0.63;;
51296;SDS011;37380;45.186;9.792;2024-02-28T04:10:41;0.70;;;0.70;;
51296;SDS011;37380;45.186;9.792;2024-02-28T04:13:08;1.42;;;0.80;;
51296;SDS011;37380;45.186;9.792;2024-02-28T04:15:35;1.15;;;0.95;;
51296;SDS011;37380;45.186;9.792;2024-02-28T04:18:04;0.80;;;0.80;;
51296;SDS011;37380;45.186;9.792;2024-02-28T04:20:32;3.08;;;0.77;;
51296;SDS011;37380;45.186;9.792;2024-02-28T04:22:59;0.82;;;0.82;;
51296;SDS011;37380;45.186;9.792;2024-02-28T04:25:26;0.82;;;0.82;;
51296;SDS011;37380;45.186;9.792;2024-02-28T04:27:53;0.80;;;0.80;;
51296;SDS011;37380;45.186;9.792;2024-02-28T04:30:20;1.25;;;0.73;;
51296;SDS011;37380;45.186;9.792;2024-02-28T04:32:47;1.38;;;1.10;;
51296;SDS011;37380;45.186;9.792;2024-02-28T04:35:14;2.05;;;0.80;;
51296;SDS011;37380;45.186;9.792;2024-02-28T04:37:48;1.17;;;1.00;;
51296;SDS011;37380;45.186;9.792;2024-02-28T04:40:15;1.70;;;0.80;;
51296;SDS011;37380;45.186;9.792;2024-02-28T04:42:42;1.27;;;1.15;;
51296;SDS011;37380;45.186;9.792;2024-02-28T04:45:12;0.95;;;0.95;;
51296;SDS011;37380;45.186;9.792;2024-02-28T04:47:39;0.90;;;0.77;;
51296;SDS011;37380;45.186;9.792;2024-02-28T04:50:10;0.93;;;0.93;;
51296;SDS011;37380;45.186;9.792;2024-02-28T04:52:38;1.98;;;1.15;;
51296;SDS011;37380;45.186;9.792;2024-02-28T04:55:05;0.88;;;0.80;;
51296;SDS011;37380;45.186;9.792;2024-02-28T04:57:35;0.70;;;0.70;;
51296;SDS011;37380;45.186;9.792;2024-02-28T05:00:02;5.53;;;1.00;;
51296;SDS011;37380;45.186;9.792;2024-02-28T05:02:30;0.75;;;0.75;;
51296;SDS011;37380;45.186;9.792;2024-02-28T05:04:57;1.80;;;1.17;;
51296;SDS011;37380;45.186;9.792;2024-02-28T05:07:25;6.90;;;1.30;;
51296;SDS011;37380;45.186;9.792;2024-02-28T05:09:52;1.67;;;1.20;;
51296;SDS011;37380;45.186;9.792;2024-02-28T05:12:19;5.80;;;1.30;;
51296;SDS011;37380;45.186;9.792;2024-02-28T05:14:46;2.72;;;1.55;;
51296;SDS011;37380;45.186;9.792;2024-02-28T05:17:13;1.80;;;1.60;;
51296;SDS011;37380;45.186;9.792;2024-02-28T05:19:39;1.30;;;1.25;;
51296;SDS011;37380;45.186;9.792;2024-02-28T05:22:08;1.70;;;1.40;;
51296;SDS011;37380;45.186;9.792;2024-02-28T05:24:37;2.35;;;1.30;;
51296;SDS011;37380;45.186;9.792;2024-02-28T05:27:04;1.20;;;1.10;;
51296;SDS011;37380;45.186;9.792;2024-02-28T05:29:31;1.42;;;1.33;;
51296;SDS011;37380;45.186;9.792;2024-02-28T05:31:58;3.42;;;1.92;;
51296;SDS011;37380;45.186;9.792;2024-02-28T05:34:25;2.20;;;2.00;;
51296;SDS011;37380;45.186;9.792;2024-02-28T05:36:52;8.57;;;2.65;;
51296;SDS011;37380;45.186;9.792;2024-02-28T05:39:19;4.90;;;3.25;;
51296;SDS011;37380;45.186;9.792;2024-02-28T05:41:47;4.25;;;3.90;;
51296;SDS011;37380;45.186;9.792;2024-02-28T05:44:13;5.28;;;4.78;;
51296;SDS011;37380;45.186;9.792;2024-02-28T05:46:42;6.47;;;5.97;;
51296;SDS011;37380;45.186;9.792;2024-02-28T05:49:09;8.77;;;8.15;;
51296;SDS011;37380;45.186;9.792;2024-02-28T05:51:36;13.13;;;7.40;;
51296;SDS011;37380;45.186;9.792;2024-02-28T05:54:03;7.63;;;6.90;;
51296;SDS011;37380;45.186;9.792;2024-02-28T05:56:30;9.57;;;7.35;;
51296;SDS011;37380;45.186;9.792;2024-02-28T05:58:57;8.15;;;7.55;;
51296;SDS011;37380;45.186;9.792;2024-02-28T06:01:24;8.93;;;8.32;;
51296;SDS011;37380;45.186;9.792;2024-02-28T06:03:51;10.32;;;9.43;;
51296;SDS011;37380;45.186;9.792;2024-02-28T06:06:19;11.65;;;10.35;;
51296;SDS011;37380;45.186;9.792;2024-02-28T06:08:46;12.30;;;11.27;;
51296;SDS011;37380;45.186;9.792;2024-02-28T06:11:13;13.45;;;12.25;;
51296;SDS011;37380;45.186;9.792;2024-02-28T06:13:41;13.18;;;11.85;;
51296;SDS011;37380;45.186;9.792;2024-02-28T06:16:13;15.27;;;13.95;;
51296;SDS011;37380;45.186;9.792;2024-02-28T06:18:40;16.88;;;15.05;;
51296;SDS011;37380;45.186;9.792;2024-02-28T06:21:07;16.02;;;14.52;;
51296;SDS011;37380;45.186;9.792;2024-02-28T06:23:34;16.30;;;14.80;;
51296;SDS011;37380;45.186;9.792;2024-02-28T06:26:01;18.23;;;16.15;;
51296;SDS011;37380;45.186;9.792;2024-02-28T06:28:28;24.02;;;17.75;;
51296;SDS011;37380;45.186;9.792;2024-02-28T06:30:55;20.60;;;18.60;;
51296;SDS011;37380;45.186;9.792;2024-02-28T06:33:22;24.60;;;22.20;;
51296;SDS011;37380;45.186;9.792;2024-02-28T06:35:49;20.77;;;19.08;;
51296;SDS011;37380;45.186;9.792;2024-02-28T06:38:16;24.45;;;21.27;;
51296;SDS011;37380;45.186;9.792;2024-02-28T06:40:43;22.35;;;20.08;;
51296;SDS011;37380;45.186;9.792;2024-02-28T06:43:10;19.55;;;17.48;;
51296;SDS011;37380;45.186;9.792;2024-02-28T06:45:37;18.17;;;15.13;;
51296;SDS011;37380;45.186;9.792;2024-02-28T06:48:04;14.18;;;12.63;;
51296;SDS011;37380;45.186;9.792;2024-02-28T06:50:32;13.93;;;12.52;;
51296;SDS011;37380;45.186;9.792;2024-02-28T06:52:59;14.23;;;11.07;;
51296;SDS011;37380;45.186;9.792;2024-02-28T06:55:26;11.63;;;10.52;;
51296;SDS011;37380;45.186;9.792;2024-02-28T06:57:53;11.88;;;10.45;;
51296;SDS011;37380;45.186;9.792;2024-02-28T07:00:20;11.93;;;10.93;;
51296;SDS011;37380;45.186;9.792;2024-02-28T07:02:47;13.60;;;12.32;;
51296;SDS011;37380;45.186;9.792;2024-02-28T07:05:14;13.43;;;12.15;;
51296;SDS011;37380;45.186;9.792;2024-02-28T07:07:41;13.73;;;12.43;;
51296;SDS011;37380;45.186;9.792;2024-02-28T07:10:08;13.35;;;12.25;;
51296;SDS011;37380;45.186;9.792;2024-02-28T07:12:36;16.25;;;13.93;;
51296;SDS011;37380;45.186;9.792;2024-02-28T07:15:03;16.77;;;15.15;;
51296;SDS011;37380;45.186;9.792;2024-02-28T07:17:31;19.40;;;15.07;;
51296;SDS011;37380;45.186;9.792;2024-02-28T07:19:58;19.27;;;16.50;;
51296;SDS011;37380;45.186;9.792;2024-02-28T07:22:25;16.02;;;14.20;;
51296;SDS011;37380;45.186;9.792;2024-02-28T07:24:52;21.23;;;14.90;;
51296;SDS011;37380;45.186;9.792;2024-02-28T07:27:21;25.67;;;18.63;;
51296;SDS011;37380;45.186;9.792;2024-02-28T07:29:50;23.73;;;16.55;;
51296;SDS011;37380;45.186;9.792;2024-02-28T07:32:17;25.80;;;15.07;;
51296;SDS011;37380;45.186;9.792;2024-02-28T07:34:44;16.73;;;15.02;;
51296;SDS011;37380;45.186;9.792;2024-02-28T07:37:11;25.42;;;15.90;;
51296;SDS011;37380;45.186;9.792;2024-02-28T07:39:38;23.63;;;14.27;;
51296;SDS011;37380;45.186;9.792;2024-02-28T07:42:05;18.05;;;14.65;;
51296;SDS011;37380;45.186;9.792;2024-02-28T07:44:32;18.42;;;16.10;;
51296;SDS011;37380;45.186;9.792;2024-02-28T07:47:00;16.75;;;14.35;;
51296;SDS011;37380;45.186;9.792;2024-02-28T07:49:27;12.35;;;11.32;;
51296;SDS011;37380;45.186;9.792;2024-02-28T07:56:51;10.68;;;9.00;;
51296;SDS011;37380;45.186;9.792;2024-02-28T08:00:50;13.77;;;11.63;;
51296;SDS011;37380;45.186;9.792;2024-02-28T08:04:49;11.30;;;10.18;;
51296;SDS011;37380;45.186;9.792;2024-02-28T08:07:17;12.43;;;11.05;;
51296;SDS011;37380;45.186;9.792;2024-02-28T08:09:44;9.80;;;8.85;;
51296;SDS011;37380;45.186;9.792;2024-02-28T08:12:11;12.02;;;10.93;;
51296;SDS011;37380;45.186;9.792;2024-02-28T08:14:38;10.77;;;9.25;;
51296;SDS011;37380;45.186;9.792;2024-02-28T08:17:05;7.82;;;7.13;;
51296;SDS011;37380;45.186;9.792;2024-02-28T08:19:32;10.48;;;7.65;;
51296;SDS011;37380;45.186;9.792;2024-02-28T08:22:01;6.57;;;6.07;;
51296;SDS011;37380;45.186;9.792;2024-02-28T08:24:28;6.95;;;6.03;;
51296;SDS011;37380;45.186;9.792;2024-02-28T08:26:55;8.52;;;6.35;;
51296;SDS011;37380;45.186;9.792;2024-02-28T08:29:22;5.13;;;4.72;;
51296;SDS011;37380;45.186;9.792;2024-02-28T08:31:49;6.55;;;5.20;;
51296;SDS011;37380;45.186;9.792;2024-02-28T08:34:16;6.30;;;5.68;;
51296;SDS011;37380;45.186;9.792;2024-02-28T08:36:44;4.13;;;3.83;;
51296;SDS011;37380;45.186;9.792;2024-02-28T08:39:11;4.05;;;3.25;;
51296;SDS011;37380;45.186;9.792;2024-02-28T08:41:38;3.67;;;3.33;;
51296;SDS011;37380;45.186;9.792;2024-02-28T08:44:06;3.42;;;3.10;;
51296;SDS011;37380;45.186;9.792;2024-02-28T08:46:33;6.13;;;3.60;;
51296;SDS011;37380;45.186;9.792;2024-02-28T08:48:59;3.22;;;3.00;;
51296;SDS011;37380;45.186;9.792;2024-02-28T08:51:27;3.55;;;2.70;;
51296;SDS011;37380;45.186;9.792;2024-02-28T08:53:55;3.70;;;2.95;;
51296;SDS011;37380;45.186;9.792;2024-02-28T08:56:24;5.00;;;3.10;;
51296;SDS011;37380;45.186;9.792;2024-02-28T08:58:50;2.97;;;2.67;;
51296;SDS011;37380;45.186;9.792;2024-02-28T09:01:17;3.65;;;3.35;;
51296;SDS011;37380;45.186;9.792;2024-02-28T09:03:45;3.20;;;2.95;;
51296;SDS011;37380;45.186;9.792;2024-02-28T09:06:11;21.85;;;2.50;;
51296;SDS011;37380;45.186;9.792;2024-02-28T09:08:39;4.65;;;4.28;;
51296;SDS011;37380;45.186;9.792;2024-02-28T09:11:06;2.45;;;2.15;;
51296;SDS011;37380;45.186;9.792;2024-02-28T09:13:33;3.88;;;2.63;;
51296;SDS011;37380;45.186;9.792;2024-02-28T09:16:02;3.15;;;2.95;;
51296;SDS011;37380;45.186;9.792;2024-02-28T09:18:29;5.28;;;3.83;;
51296;SDS011;37380;45.186;9.792;2024-02-28T09:20:56;3.53;;;3.17;;
51296;SDS011;37380;45.186;9.792;2024-02-28T09:23:23;4.15;;;3.53;;
51296;SDS011;37380;45.186;9.792;2024-02-28T09:25:50;4.38;;;3.97;;
51296;SDS011;37380;45.186;9.792;2024-02-28T09:28:17;6.15;;;4.13;;
51296;SDS011;37380;45.186;9.792;2024-02-28T09:30:44;6.85;;;5.00;;
51296;SDS011;37380;45.186;9.792;2024-02-28T09:33:20;3.65;;;3.35;;
51296;SDS011;37380;45.186;9.792;2024-02-28T09:35:47;6.22;;;4.20;;
51296;SDS011;37380;45.186;9.792;2024-02-28T09:38:14;4.95;;;4.55;;
51296;SDS011;37380;45.186;9.792;2024-02-28T09:40:41;4.03;;;3.63;;
51296;SDS011;37380;45.186;9.792;2024-02-28T09:43:15;3.47;;;3.17;;
51296;SDS011;37380;45.186;9.792;2024-02-28T09:45:46;6.57;;;3.45;;
51296;SDS011;37380;45.186;9.792;2024-02-28T09:48:15;3.63;;;3.33;;
51296;SDS011;37380;45.186;9.792;2024-02-28T09:50:44;7.95;;;6.93;;
51296;SDS011;37380;45.186;9.792;2024-02-28T09:53:12;10.82;;;7.15;;
51296;SDS011;37380;45.186;9.792;2024-02-28T09:55:39;7.90;;;5.60;;
51296;SDS011;37380;45.186;9.792;2024-02-28T09:58:07;6.47;;;5.45;;
51296;SDS011;37380;45.186;9.792;2024-02-28T10:00:35;6.15;;;5.22;;
51296;SDS011;37380;45.186;9.792;2024-02-28T10:03:04;6.13;;;4.63;;
51296;SDS011;37380;45.186;9.792;2024-02-28T10:05:33;6.22;;;4.75;;
51296;SDS011;37380;45.186;9.792;2024-02-28T10:08:00;5.55;;;4.72;;
51296;SDS011;37380;45.186;9.792;2024-02-28T10:10:28;8.25;;;3.90;;
51296;SDS011;37380;45.186;9.792;2024-02-28T10:12:55;11.00;;;6.03;;
51296;SDS011;37380;45.186;9.792;2024-02-28T10:15:23;7.13;;;4.75;;
51296;SDS011;37380;45.186;9.792;2024-02-28T10:17:50;5.10;;;4.55;;
51296;SDS011;37380;45.186;9.792;2024-02-28T10:20:17;8.63;;;4.82;;
51296;SDS011;37380;45.186;9.792;2024-02-28T10:22:44;5.25;;;4.75;;
51296;SDS011;37380;45.186;9.792;2024-02-28T10:25:11;4.75;;;4.03;;
51296;SDS011;37380;45.186;9.792;2024-02-28T10:27:38;14.23;;;5.75;;
51296;SDS011;37380;45.186;9.792;2024-02-28T10:30:06;8.63;;;6.63;;
51296;SDS011;37380;45.186;9.792;2024-02-28T10:32:33;6.47;;;5.63;;
51296;SDS011;37380;45.186;9.792;2024-02-28T10:35:04;5.22;;;4.53;;
51296;SDS011;37380;45.186;9.792;2024-02-28T10:37:37;15.88;;;5.95;;
51296;SDS011;37380;45.186;9.792;2024-02-28T10:40:05;10.07;;;5.18;;
51296;SDS011;37380;45.186;9.792;2024-02-28T10:42:34;4.50;;;4.07;;
51296;SDS011;37380;45.186;9.792;2024-02-28T10:45:03;4.90;;;4.47;;
51296;SDS011;37380;45.186;9.792;2024-02-28T10:47:46;5.03;;;3.57;;
51296;SDS011;37380;45.186;9.792;2024-02-28T10:50:17;9.75;;;5.78;;
51296;SDS011;37380;45.186;9.792;2024-02-28T10:52:44;14.07;;;5.80;;
51296;SDS011;37380;45.186;9.792;2024-02-28T10:55:20;6.03;;;5.15;;
51296;SDS011;37380;45.186;9.792;2024-02-28T10:58:10;6.28;;;4.80;;
51296;SDS011;37380;45.186;9.792;2024-02-28T11:00:41;6.90;;;5.40;;
51296;SDS011;37380;45.186;9.792;2024-02-28T11:03:15;7.05;;;5.07;;
51296;SDS011;37380;45.186;9.792;2024-02-28T11:05:44;10.18;;;7.28;;
51296;SDS011;37380;45.186;9.792;2024-02-28T11:08:22;16.83;;;7.70;;
51296;SDS011;37380;45.186;9.792;2024-02-28T11:10:57;8.57;;;7.43;;
51296;SDS011;37380;45.186;9.792;2024-02-28T11:13:31;11.32;;;9.23;;
51296;SDS011;37380;45.186;9.792;2024-02-28T11:16:07;11.27;;;9.23;;
51296;SDS011;37380;45.186;9.792;2024-02-28T11:18:47;13.90;;;11.23;;
51296;SDS011;37380;45.186;9.792;2024-02-28T11:21:16;14.15;;;11.10;;
51296;SDS011;37380;45.186;9.792;2024-02-28T11:23:46;11.35;;;9.75;;
51296;SDS011;37380;45.186;9.792;2024-02-28T11:26:14;10.55;;;9.50;;
51296;SDS011;37380;45.186;9.792;2024-02-28T11:28:42;12.55;;;10.23;;
51296;SDS011;37380;45.186;9.792;2024-02-28T11:31:09;13.35;;;10.77;;
51296;SDS011;37380;45.186;9.792;2024-02-28T11:33:36;12.93;;;11.45;;
51296;SDS011;37380;45.186;9.792;2024-02-28T11:36:05;10.73;;;9.77;;
51296;SDS011;37380;45.186;9.792;2024-02-28T11:38:34;10.75;;;9.75;;
51296;SDS011;37380;45.186;9.792;2024-02-28T11:41:05;17.83;;;11.02;;
51296;SDS011;37380;45.186;9.792;2024-02-28T11:43:34;9.55;;;8.82;;
51296;SDS011;37380;45.186;9.792;2024-02-28T11:46:17;10.95;;;10.00;;
51296;SDS011;37380;45.186;9.792;2024-02-28T11:48:45;9.85;;;9.00;;
51296;SDS011;37380;45.186;9.792;2024-02-28T11:51:12;9.43;;;8.60;;
51296;SDS011;37380;45.186;9.792;2024-02-28T11:53:39;15.00;;;8.98;;
51296;SDS011;37380;45.186;9.792;2024-02-28T11:56:06;9.77;;;8.82;;
51296;SDS011;37380;45.186;9.792;2024-02-28T11:58:35;13.00;;;9.75;;
51296;SDS011;37380;45.186;9.792;2024-02-28T12:01:02;9.60;;;8.73;;
51296;SDS011;37380;45.186;9.792;2024-02-28T12:03:30;11.38;;;8.48;;
51296;SDS011;37380;45.186;9.792;2024-02-28T12:05:58;10.40;;;9.23;;
51296;SDS011;37380;45.186;9.792;2024-02-28T12:08:27;11.70;;;8.30;;
51296;SDS011;37380;45.186;9.792;2024-02-28T12:11:05;14.18;;;8.32;;
51296;SDS011;37380;45.186;9.792;2024-02-28T12:13:33;9.90;;;8.07;;
51296;SDS011;37380;45.186;9.792;2024-02-28T12:16:00;9.27;;;8.48;;
51296;SDS011;37380;45.186;9.792;2024-02-28T12:18:28;8.93;;;8.13;;
51296;SDS011;37380;45.186;9.792;2024-02-28T12:20:55;7.97;;;7.30;;
51296;SDS011;37380;45.186;9.792;2024-02-28T12:23:22;11.18;;;7.40;;
51296;SDS011;37380;45.186;9.792;2024-02-28T12:25:49;9.63;;;8.68;;
51296;SDS011;37380;45.186;9.792;2024-02-28T12:28:16;8.85;;;7.30;;
51296;SDS011;37380;45.186;9.792;2024-02-28T12:30:43;8.82;;;7.60;;
51296;SDS011;37380;45.186;9.792;2024-02-28T12:33:10;10.35;;;8.40;;
51296;SDS011;37380;45.186;9.792;2024-02-28T12:35:40;7.95;;;7.15;;
51296;SDS011;37380;45.186;9.792;2024-02-28T12:38:09;14.40;;;9.90;;
51296;SDS011;37380;45.186;9.792;2024-02-28T12:40:36;9.25;;;8.32;;
51296;SDS011;37380;45.186;9.792;2024-02-28T12:43:03;12.27;;;7.38;;
51296;SDS011;37380;45.186;9.792;2024-02-28T12:45:30;9.40;;;8.52;;
51296;SDS011;37380;45.186;9.792;2024-02-28T12:47:58;8.07;;;7.30;;
51296;SDS011;37380;45.186;9.792;2024-02-28T12:50:25;14.73;;;10.93;;
51296;SDS011;37380;45.186;9.792;2024-02-28T12:52:52;9.35;;;8.40;;
51296;SDS011;37380;45.186;9.792;2024-02-28T12:55:20;10.48;;;8.75;;
51296;SDS011;37380;45.186;9.792;2024-02-28T12:57:50;14.25;;;9.30;;
51296;SDS011;37380;45.186;9.792;2024-02-28T13:00:17;12.57;;;11.38;;
51296;SDS011;37380;45.186;9.792;2024-02-28T13:02:45;10.27;;;9.38;;
51296;SDS011;37380;45.186;9.792;2024-02-28T13:05:12;10.63;;;9.70;;
51296;SDS011;37380;45.186;9.792;2024-02-28T13:07:42;11.73;;;10.52;;
51296;SDS011;37380;45.186;9.792;2024-02-28T13:10:09;14.38;;;11.85;;
51296;SDS011;37380;45.186;9.792;2024-02-28T13:12:37;13.27;;;11.88;;
51296;SDS011;37380;45.186;9.792;2024-02-28T13:15:06;17.67;;;13.70;;
51296;SDS011;37380;45.186;9.792;2024-02-28T13:17:34;13.93;;;12.00;;
51296;SDS011;37380;45.186;9.792;2024-02-28T13:20:01;13.20;;;11.93;;
51296;SDS011;37380;45.186;9.792;2024-02-28T13:22:30;14.05;;;12.68;;
51296;SDS011;37380;45.186;9.792;2024-02-28T13:24:57;21.20;;;16.45;;
51296;SDS011;37380;45.186;9.792;2024-02-28T13:27:24;17.33;;;13.07;;
51296;SDS011;37380;45.186;9.792;2024-02-28T13:29:51;15.95;;;12.30;;
51296;SDS011;37380;45.186;9.792;2024-02-28T13:32:18;12.90;;;11.38;;
51296;SDS011;37380;45.186;9.792;2024-02-28T13:34:45;14.05;;;12.77;;
51296;SDS011;37380;45.186;9.792;2024-02-28T13:37:15;12.82;;;11.35;;
51296;SDS011;37380;45.186;9.792;2024-02-28T13:39:43;15.93;;;14.43;;
51296;SDS011;37380;45.186;9.792;2024-02-28T13:42:10;21.08;;;14.85;;
51296;SDS011;37380;45.186;9.792;2024-02-28T13:44:38;20.02;;;14.80;;
51296;SDS011;37380;45.186;9.792;2024-02-28T13:47:05;19.27;;;16.20;;
51296;SDS011;37380;45.186;9.792;2024-02-28T13:49:32;17.08;;;15.27;;
51296;SDS011;37380;45.186;9.792;2024-02-28T13:51:59;20.25;;;18.15;;
51296;SDS011;37380;45.186;9.792;2024-02-28T13:54:27;19.85;;;14.90;;
51296;SDS011;37380;45.186;9.792;2024-02-28T13:56:54;18.83;;;15.70;;
51296;SDS011;37380;45.186;9.792;2024-02-28T13:59:21;17.25;;;14.35;;
51296;SDS011;37380;45.186;9.792;2024-02-28T14:01:48;16.27;;;12.00;;
51296;SDS011;37380;45.186;9.792;2024-02-28T14:04:16;16.13;;;13.15;;
51296;SDS011;37380;45.186;9.792;2024-02-28T14:06:43;24.30;;;13.38;;
51296;SDS011;37380;45.186;9.792;2024-02-28T14:09:10;10.82;;;9.73;;
51296;SDS011;37380;45.186;9.792;2024-02-28T14:11:38;17.50;;;10.48;;
51296;SDS011;37380;45.186;9.792;2024-02-28T14:14:05;13.68;;;10.40;;
51296;SDS011;37380;45.186;9.792;2024-02-28T14:16:32;10.73;;;9.65;;
51296;SDS011;37380;45.186;9.792;2024-02-28T14:19:00;12.75;;;7.70;;
51296;SDS011;37380;45.186;9.792;2024-02-28T14:21:27;11.45;;;7.32;;
51296;SDS011;37380;45.186;9.792;2024-02-28T14:23:54;11.75;;;8.82;;
51296;SDS011;37380;45.186;9.792;2024-02-28T14:26:21;12.18;;;7.07;;
51296;SDS011;37380;45.186;9.792;2024-02-28T14:28:51;8.57;;;7.05;;
51296;SDS011;37380;45.186;9.792;2024-02-28T14:31:18;7.13;;;6.50;;
51296;SDS011;37380;45.186;9.792;2024-02-28T14:33:45;9.68;;;7.28;;
51296;SDS011;37380;45.186;9.792;2024-02-28T14:36:12;13.45;;;8.40;;
51296;SDS011;37380;45.186;9.792;2024-02-28T14:38:40;9.05;;;8.15;;
51296;SDS011;37380;45.186;9.792;2024-02-28T14:41:11;9.00;;;8.10;;
51296;SDS011;37380;45.186;9.792;2024-02-28T14:43:39;9.82;;;7.28;;
51296;SDS011;37380;45.186;9.792;2024-02-28T14:46:06;12.35;;;6.88;;
51296;SDS011;37380;45.186;9.792;2024-02-28T14:48:35;8.85;;;6.03;;
51296;SDS011;37380;45.186;9.792;2024-02-28T14:51:02;12.00;;;7.93;;
51296;SDS011;37380;45.186;9.792;2024-02-28T14:53:29;7.05;;;6.35;;